sensor_id;sensor_type;location;lat;lon;timestamp;P1;durP1;ratioP1;P2;durP2;ratioP2
79487;SDS011;68949;53.176;18.088;2023-08-06T00:00:48;3.90;;;1.80;;
79487;SDS011;68949;53.176;18.088;2023-08-06T00:03:34;5.00;;;2.10;;
79487;SDS011;68949;53.176;18.088;2023-08-06T00:06:00;4.80;;;1.90;;
79487;SDS011;68949;53.176;18.088;2023-08-06T00:08:26;6.60;;;2.50;;
79487;SDS011;68949;53.176;18.088;2023-08-06T00:10:52;5.80;;;2.30;;
79487;SDS011;68949;53.176;18.088;2023-08-06T00:13:18;4.80;;;2.00;;
79487;SDS011;68949;53.176;18.088;2023-08-06T00:15:43;6.00;;;2.60;;
79487;SDS011;68949;53.176;18.088;2023-08-06T00:18:09;4.80;;;2.00;;
79487;SDS011;68949;53.176;18.088;2023-08-06T00:20:39;4.60;;;2.40;;
79487;SDS011;68949;53.176;18.088;2023-08-06T00:23:07;5.00;;;2.10;;
79487;SDS011;68949;53.176;18.088;2023-08-06T00:25:34;4.30;;;2.20;;
79487;SDS011;68949;53.176;18.088;2023-08-06T00:28:00;4.80;;;2.30;;
79487;SDS011;68949;53.176;18.088;2023-08-06T00:30:26;6.60;;;2.50;;
79487;SDS011;68949;53.176;18.088;2023-08-06T00:32:52;5.50;;;2.30;;
79487;SDS011;68949;53.176;18.088;2023-08-06T00:35:18;6.10;;;2.50;;
79487;SDS011;68949;53.176;18.088;2023-08-06T00:37:44;4.60;;;2.00;;
79487;SDS011;68949;53.176;18.088;2023-08-06T00:40:10;4.60;;;2.30;;
79487;SDS011;68949;53.176;18.088;2023-08-06T00:42:36;6.40;;;2.60;;
79487;SDS011;68949;53.176;18.088;2023-08-06T00:45:03;5.50;;;2.50;;
79487;SDS011;68949;53.176;18.088;2023-08-06T00:47:29;5.10;;;2.50;;
79487;SDS011;68949;53.176;18.088;2023-08-06T00:49:55;5.10;;;2.20;;
79487;SDS011;68949;53.176;18.088;2023-08-06T00:52:21;5.80;;;2.70;;
79487;SDS011;68949;53.176;18.088;2023-08-06T00:54:47;5.40;;;2.30;;
79487;SDS011;68949;53.176;18.088;2023-08-06T00:57:15;5.20;;;2.20;;
79487;SDS011;68949;53.176;18.088;2023-08-06T00:59:41;5.30;;;2.60;;
79487;SDS011;68949;53.176;18.088;2023-08-06T01:02:07;6.30;;;2.50;;
79487;SDS011;68949;53.176;18.088;2023-08-06T01:04:33;4.20;;;2.20;;
79487;SDS011;68949;53.176;18.088;2023-08-06T01:13:32;6.40;;;3.10;;
79487;SDS011;68949;53.176;18.088;2023-08-06T01:16:03;6.10;;;2.60;;
79487;SDS011;68949;53.176;18.088;2023-08-06T01:18:31;5.40;;;2.80;;
79487;SDS011;68949;53.176;18.088;2023-08-06T01:20:57;5.90;;;3.00;;
79487;SDS011;68949;53.176;18.088;2023-08-06T01:23:24;7.20;;;3.50;;
79487;SDS011;68949;53.176;18.088;2023-08-06T01:29:06;6.00;;;2.90;;
79487;SDS011;68949;53.176;18.088;2023-08-06T01:31:39;6.60;;;3.00;;
79487;SDS011;68949;53.176;18.088;2023-08-06T01:34:10;5.80;;;2.80;;
79487;SDS011;68949;53.176;18.088;2023-08-06T01:36:42;4.40;;;2.40;;
79487;SDS011;68949;53.176;18.088;2023-08-06T01:39:09;5.60;;;1.90;;
79487;SDS011;68949;53.176;18.088;2023-08-06T01:41:36;5.30;;;2.40;;
79487;SDS011;68949;53.176;18.088;2023-08-06T01:44:03;5.80;;;3.00;;
79487;SDS011;68949;53.176;18.088;2023-08-06T01:46:31;7.00;;;3.10;;
79487;SDS011;68949;53.176;18.088;2023-08-06T01:48:57;6.10;;;2.30;;
79487;SDS011;68949;53.176;18.088;2023-08-06T01:51:23;5.60;;;2.30;;
79487;SDS011;68949;53.176;18.088;2023-08-06T01:53:48;7.70;;;2.30;;
79487;SDS011;68949;53.176;18.088;2023-08-06T01:56:14;5.30;;;2.60;;
79487;SDS011;68949;53.176;18.088;2023-08-06T01:58:40;5.50;;;2.70;;
79487;SDS011;68949;53.176;18.088;2023-08-06T02:01:06;4.70;;;2.30;;
79487;SDS011;68949;53.176;18.088;2023-08-06T02:03:32;5.10;;;2.20;;
79487;SDS011;68949;53.176;18.088;2023-08-06T02:05:58;5.90;;;2.40;;
79487;SDS011;68949;53.176;18.088;2023-08-06T02:08:24;5.80;;;3.00;;
79487;SDS011;68949;53.176;18.088;2023-08-06T02:10:50;4.40;;;1.90;;
79487;SDS011;68949;53.176;18.088;2023-08-06T02:13:16;5.50;;;2.30;;
79487;SDS011;68949;53.176;18.088;2023-08-06T02:15:43;5.90;;;2.80;;
79487;SDS011;68949;53.176;18.088;2023-08-06T02:18:10;4.60;;;2.10;;
79487;SDS011;68949;53.176;18.088;2023-08-06T02:20:36;5.30;;;2.40;;
79487;SDS011;68949;53.176;18.088;2023-08-06T02:23:02;5.50;;;2.70;;
79487;SDS011;68949;53.176;18.088;2023-08-06T02:25:28;4.60;;;1.90;;
79487;SDS011;68949;53.176;18.088;2023-08-06T02:27:54;5.60;;;2.30;;
79487;SDS011;68949;53.176;18.088;2023-08-06T02:30:19;5.50;;;2.50;;
79487;SDS011;68949;53.176;18.088;2023-08-06T02:32:45;7.10;;;2.30;;
79487;SDS011;68949;53.176;18.088;2023-08-06T02:35:11;6.50;;;2.10;;
79487;SDS011;68949;53.176;18.088;2023-08-06T02:37:38;6.30;;;2.40;;
79487;SDS011;68949;53.176;18.088;2023-08-06T02:40:04;4.30;;;1.90;;
79487;SDS011;68949;53.176;18.088;2023-08-06T02:42:31;5.10;;;2.00;;
79487;SDS011;68949;53.176;18.088;2023-08-06T02:44:57;4.60;;;2.50;;
79487;SDS011;68949;53.176;18.088;2023-08-06T02:47:23;6.30;;;3.20;;
79487;SDS011;68949;53.176;18.088;2023-08-06T02:49:49;5.70;;;2.20;;
79487;SDS011;68949;53.176;18.088;2023-08-06T02:52:16;5.20;;;1.80;;
79487;SDS011;68949;53.176;18.088;2023-08-06T02:54:42;5.60;;;2.10;;
79487;SDS011;68949;53.176;18.088;2023-08-06T02:57:09;5.00;;;2.30;;
79487;SDS011;68949;53.176;18.088;2023-08-06T02:59:35;5.90;;;2.20;;
79487;SDS011;68949;53.176;18.088;2023-08-06T03:02:09;4.70;;;1.80;;
79487;SDS011;68949;53.176;18.088;2023-08-06T03:04:42;4.80;;;2.10;;
79487;SDS011;68949;53.176;18.088;2023-08-06T03:07:09;3.50;;;1.50;;
79487;SDS011;68949;53.176;18.088;2023-08-06T03:09:41;6.20;;;2.30;;
79487;SDS011;68949;53.176;18.088;2023-08-06T03:12:07;4.90;;;1.90;;
79487;SDS011;68949;53.176;18.088;2023-08-06T03:14:34;4.50;;;1.90;;
79487;SDS011;68949;53.176;18.088;2023-08-06T03:17:00;5.60;;;1.70;;
79487;SDS011;68949;53.176;18.088;2023-08-06T03:19:26;4.90;;;2.20;;
79487;SDS011;68949;53.176;18.088;2023-08-06T03:21:53;4.70;;;2.10;;
79487;SDS011;68949;53.176;18.088;2023-08-06T03:24:21;4.20;;;1.60;;
79487;SDS011;68949;53.176;18.088;2023-08-06T03:26:47;5.20;;;1.60;;
79487;SDS011;68949;53.176;18.088;2023-08-06T03:29:13;4.10;;;1.60;;
79487;SDS011;68949;53.176;18.088;2023-08-06T03:31:39;4.40;;;2.00;;
79487;SDS011;68949;53.176;18.088;2023-08-06T03:34:06;4.50;;;1.40;;
79487;SDS011;68949;53.176;18.088;2023-08-06T03:36:32;4.40;;;1.80;;
79487;SDS011;68949;53.176;18.088;2023-08-06T03:39:00;4.90;;;2.20;;
79487;SDS011;68949;53.176;18.088;2023-08-06T03:41:26;6.20;;;1.90;;
79487;SDS011;68949;53.176;18.088;2023-08-06T03:43:52;4.60;;;2.00;;
79487;SDS011;68949;53.176;18.088;2023-08-06T03:46:22;4.50;;;1.80;;
79487;SDS011;68949;53.176;18.088;2023-08-06T03:48:48;6.00;;;1.90;;
79487;SDS011;68949;53.176;18.088;2023-08-06T03:51:14;5.30;;;1.60;;
79487;SDS011;68949;53.176;18.088;2023-08-06T03:53:42;5.40;;;2.40;;
79487;SDS011;68949;53.176;18.088;2023-08-06T03:56:09;6.60;;;2.60;;
79487;SDS011;68949;53.176;18.088;2023-08-06T03:58:35;6.60;;;2.10;;
79487;SDS011;68949;53.176;18.088;2023-08-06T04:01:02;6.50;;;2.40;;
79487;SDS011;68949;53.176;18.088;2023-08-06T04:03:41;4.90;;;1.90;;
79487;SDS011;68949;53.176;18.088;2023-08-06T04:06:07;5.10;;;2.30;;
79487;SDS011;68949;53.176;18.088;2023-08-06T04:08:33;5.10;;;2.40;;
79487;SDS011;68949;53.176;18.088;2023-08-06T04:10:59;5.40;;;1.90;;
79487;SDS011;68949;53.176;18.088;2023-08-06T04:13:25;5.00;;;2.10;;
79487;SDS011;68949;53.176;18.088;2023-08-06T04:15:51;5.80;;;2.10;;
79487;SDS011;68949;53.176;18.088;2023-08-06T04:18:17;5.10;;;1.90;;
79487;SDS011;68949;53.176;18.088;2023-08-06T04:20:44;4.30;;;1.80;;
79487;SDS011;68949;53.176;18.088;2023-08-06T04:23:15;4.50;;;2.00;;
79487;SDS011;68949;53.176;18.088;2023-08-06T04:25:41;5.60;;;2.10;;
79487;SDS011;68949;53.176;18.088;2023-08-06T04:28:07;3.10;;;1.40;;
79487;SDS011;68949;53.176;18.088;2023-08-06T04:30:33;3.50;;;1.50;;
79487;SDS011;68949;53.176;18.088;2023-08-06T04:33:01;3.80;;;1.50;;
79487;SDS011;68949;53.176;18.088;2023-08-06T04:35:27;5.80;;;1.80;;
79487;SDS011;68949;53.176;18.088;2023-08-06T04:37:53;4.10;;;1.80;;
79487;SDS011;68949;53.176;18.088;2023-08-06T04:40:19;4.10;;;1.70;;
79487;SDS011;68949;53.176;18.088;2023-08-06T04:42:45;4.20;;;1.30;;
79487;SDS011;68949;53.176;18.088;2023-08-06T04:45:11;4.10;;;1.60;;
79487;SDS011;68949;53.176;18.088;2023-08-06T04:47:37;4.80;;;1.60;;
79487;SDS011;68949;53.176;18.088;2023-08-06T04:50:03;4.00;;;1.40;;
79487;SDS011;68949;53.176;18.088;2023-08-06T04:52:29;3.10;;;1.30;;
79487;SDS011;68949;53.176;18.088;2023-08-06T04:54:58;3.80;;;1.60;;
79487;SDS011;68949;53.176;18.088;2023-08-06T04:57:24;5.00;;;1.30;;
79487;SDS011;68949;53.176;18.088;2023-08-06T04:59:50;3.20;;;1.30;;
79487;SDS011;68949;53.176;18.088;2023-08-06T05:02:16;3.80;;;1.40;;
79487;SDS011;68949;53.176;18.088;2023-08-06T05:04:42;4.70;;;1.80;;
79487;SDS011;68949;53.176;18.088;2023-08-06T05:07:08;3.80;;;1.60;;
79487;SDS011;68949;53.176;18.088;2023-08-06T05:09:33;4.00;;;1.70;;
79487;SDS011;68949;53.176;18.088;2023-08-06T05:12:03;3.80;;;1.60;;
79487;SDS011;68949;53.176;18.088;2023-08-06T05:14:30;3.80;;;1.40;;
79487;SDS011;68949;53.176;18.088;2023-08-06T05:16:56;4.30;;;1.60;;
79487;SDS011;68949;53.176;18.088;2023-08-06T05:19:22;4.30;;;1.40;;
79487;SDS011;68949;53.176;18.088;2023-08-06T05:21:48;4.30;;;1.40;;
79487;SDS011;68949;53.176;18.088;2023-08-06T05:24:14;3.20;;;1.10;;
79487;SDS011;68949;53.176;18.088;2023-08-06T05:26:39;4.00;;;1.70;;
79487;SDS011;68949;53.176;18.088;2023-08-06T05:29:05;3.60;;;1.60;;
79487;SDS011;68949;53.176;18.088;2023-08-06T05:31:31;4.50;;;2.30;;
79487;SDS011;68949;53.176;18.088;2023-08-06T05:33:57;3.80;;;1.30;;
79487;SDS011;68949;53.176;18.088;2023-08-06T05:36:23;4.30;;;1.30;;
79487;SDS011;68949;53.176;18.088;2023-08-06T05:38:49;4.60;;;2.10;;
79487;SDS011;68949;53.176;18.088;2023-08-06T05:41:15;6.90;;;1.90;;
79487;SDS011;68949;53.176;18.088;2023-08-06T05:43:41;4.50;;;2.30;;
79487;SDS011;68949;53.176;18.088;2023-08-06T05:46:07;5.20;;;2.20;;
79487;SDS011;68949;53.176;18.088;2023-08-06T05:48:33;6.20;;;2.40;;
79487;SDS011;68949;53.176;18.088;2023-08-06T05:50:59;4.10;;;2.30;;
79487;SDS011;68949;53.176;18.088;2023-08-06T05:53:25;4.40;;;1.80;;
79487;SDS011;68949;53.176;18.088;2023-08-06T05:55:51;5.30;;;2.00;;
79487;SDS011;68949;53.176;18.088;2023-08-06T05:58:17;6.00;;;2.10;;
79487;SDS011;68949;53.176;18.088;2023-08-06T06:00:45;4.70;;;1.80;;
79487;SDS011;68949;53.176;18.088;2023-08-06T06:03:11;6.80;;;3.10;;
79487;SDS011;68949;53.176;18.088;2023-08-06T06:05:38;5.90;;;3.10;;
79487;SDS011;68949;53.176;18.088;2023-08-06T06:08:07;5.60;;;3.20;;
79487;SDS011;68949;53.176;18.088;2023-08-06T06:10:33;6.30;;;3.60;;
79487;SDS011;68949;53.176;18.088;2023-08-06T06:12:58;6.40;;;3.90;;
79487;SDS011;68949;53.176;18.088;2023-08-06T06:15:24;6.80;;;3.80;;
79487;SDS011;68949;53.176;18.088;2023-08-06T06:17:50;6.20;;;3.20;;
79487;SDS011;68949;53.176;18.088;2023-08-06T06:20:16;6.70;;;3.50;;
79487;SDS011;68949;53.176;18.088;2023-08-06T06:22:43;5.40;;;2.90;;
79487;SDS011;68949;53.176;18.088;2023-08-06T06:25:08;9.50;;;4.90;;
79487;SDS011;68949;53.176;18.088;2023-08-06T06:27:36;6.70;;;4.10;;
79487;SDS011;68949;53.176;18.088;2023-08-06T06:30:02;7.80;;;4.20;;
79487;SDS011;68949;53.176;18.088;2023-08-06T06:32:28;6.80;;;3.40;;
79487;SDS011;68949;53.176;18.088;2023-08-06T06:34:54;8.20;;;4.30;;
79487;SDS011;68949;53.176;18.088;2023-08-06T06:37:21;6.90;;;3.60;;
79487;SDS011;68949;53.176;18.088;2023-08-06T06:39:47;6.60;;;3.50;;
79487;SDS011;68949;53.176;18.088;2023-08-06T06:42:13;7.60;;;4.80;;
79487;SDS011;68949;53.176;18.088;2023-08-06T06:44:42;6.20;;;3.60;;
79487;SDS011;68949;53.176;18.088;2023-08-06T06:47:08;6.00;;;3.40;;
79487;SDS011;68949;53.176;18.088;2023-08-06T06:49:34;7.20;;;3.90;;
79487;SDS011;68949;53.176;18.088;2023-08-06T06:52:00;7.10;;;4.20;;
79487;SDS011;68949;53.176;18.088;2023-08-06T06:54:26;7.70;;;4.10;;
79487;SDS011;68949;53.176;18.088;2023-08-06T06:56:52;8.10;;;4.80;;
79487;SDS011;68949;53.176;18.088;2023-08-06T06:59:18;7.10;;;4.00;;
79487;SDS011;68949;53.176;18.088;2023-08-06T07:01:44;7.40;;;4.10;;
79487;SDS011;68949;53.176;18.088;2023-08-06T07:04:10;6.80;;;3.70;;
79487;SDS011;68949;53.176;18.088;2023-08-06T07:06:36;7.00;;;3.80;;
79487;SDS011;68949;53.176;18.088;2023-08-06T07:09:02;6.70;;;3.80;;
79487;SDS011;68949;53.176;18.088;2023-08-06T07:11:28;7.50;;;3.40;;
79487;SDS011;68949;53.176;18.088;2023-08-06T07:13:57;7.20;;;3.60;;
79487;SDS011;68949;53.176;18.088;2023-08-06T07:16:25;4.80;;;2.50;;
79487;SDS011;68949;53.176;18.088;2023-08-06T07:18:52;5.80;;;3.30;;
79487;SDS011;68949;53.176;18.088;2023-08-06T07:21:20;6.90;;;3.30;;
79487;SDS011;68949;53.176;18.088;2023-08-06T07:23:46;6.20;;;3.10;;
79487;SDS011;68949;53.176;18.088;2023-08-06T07:26:16;6.00;;;2.90;;
79487;SDS011;68949;53.176;18.088;2023-08-06T07:28:43;7.10;;;2.50;;
79487;SDS011;68949;53.176;18.088;2023-08-06T07:31:10;7.70;;;3.10;;
79487;SDS011;68949;53.176;18.088;2023-08-06T07:33:37;6.90;;;3.10;;
79487;SDS011;68949;53.176;18.088;2023-08-06T07:36:14;5.30;;;2.60;;
79487;SDS011;68949;53.176;18.088;2023-08-06T07:38:44;6.30;;;3.00;;
79487;SDS011;68949;53.176;18.088;2023-08-06T07:41:10;6.00;;;3.10;;
79487;SDS011;68949;53.176;18.088;2023-08-06T07:43:37;6.30;;;3.00;;
79487;SDS011;68949;53.176;18.088;2023-08-06T07:46:03;7.70;;;3.00;;
79487;SDS011;68949;53.176;18.088;2023-08-06T07:48:30;5.30;;;2.90;;
79487;SDS011;68949;53.176;18.088;2023-08-06T07:50:57;5.70;;;2.90;;
79487;SDS011;68949;53.176;18.088;2023-08-06T07:53:25;5.40;;;3.10;;
79487;SDS011;68949;53.176;18.088;2023-08-06T07:55:57;5.40;;;3.00;;
79487;SDS011;68949;53.176;18.088;2023-08-06T07:58:24;6.40;;;3.00;;
79487;SDS011;68949;53.176;18.088;2023-08-06T08:00:51;6.40;;;3.10;;
79487;SDS011;68949;53.176;18.088;2023-08-06T08:03:17;7.10;;;3.10;;
79487;SDS011;68949;53.176;18.088;2023-08-06T08:05:44;7.00;;;3.70;;
79487;SDS011;68949;53.176;18.088;2023-08-06T08:08:10;8.50;;;3.60;;
79487;SDS011;68949;53.176;18.088;2023-08-06T08:10:36;4.80;;;2.70;;
79487;SDS011;68949;53.176;18.088;2023-08-06T08:13:04;5.60;;;2.60;;
79487;SDS011;68949;53.176;18.088;2023-08-06T08:15:31;6.60;;;3.20;;
79487;SDS011;68949;53.176;18.088;2023-08-06T08:17:59;5.00;;;2.00;;
79487;SDS011;68949;53.176;18.088;2023-08-06T08:20:26;5.70;;;3.20;;
79487;SDS011;68949;53.176;18.088;2023-08-06T08:22:59;6.20;;;3.60;;
79487;SDS011;68949;53.176;18.088;2023-08-06T08:25:27;6.30;;;3.10;;
79487;SDS011;68949;53.176;18.088;2023-08-06T08:27:54;6.30;;;2.50;;
79487;SDS011;68949;53.176;18.088;2023-08-06T08:30:21;6.50;;;3.60;;
79487;SDS011;68949;53.176;18.088;2023-08-06T08:32:48;5.20;;;2.80;;
79487;SDS011;68949;53.176;18.088;2023-08-06T08:35:15;6.30;;;2.90;;
79487;SDS011;68949;53.176;18.088;2023-08-06T08:37:42;5.00;;;2.90;;
79487;SDS011;68949;53.176;18.088;2023-08-06T08:40:09;6.30;;;3.90;;
79487;SDS011;68949;53.176;18.088;2023-08-06T08:42:36;5.20;;;2.60;;
79487;SDS011;68949;53.176;18.088;2023-08-06T08:45:06;7.10;;;3.70;;
79487;SDS011;68949;53.176;18.088;2023-08-06T08:47:37;6.90;;;3.60;;
79487;SDS011;68949;53.176;18.088;2023-08-06T08:50:05;6.70;;;3.70;;
79487;SDS011;68949;53.176;18.088;2023-08-06T08:52:36;6.70;;;3.80;;
79487;SDS011;68949;53.176;18.088;2023-08-06T08:55:05;8.20;;;4.60;;
79487;SDS011;68949;53.176;18.088;2023-08-06T08:57:36;7.50;;;5.00;;
79487;SDS011;68949;53.176;18.088;2023-08-06T09:00:02;6.20;;;3.30;;
79487;SDS011;68949;53.176;18.088;2023-08-06T09:02:30;6.00;;;3.70;;
79487;SDS011;68949;53.176;18.088;2023-08-06T09:05:00;8.40;;;4.90;;
79487;SDS011;68949;53.176;18.088;2023-08-06T09:07:32;6.90;;;3.50;;
79487;SDS011;68949;53.176;18.088;2023-08-06T09:10:03;8.80;;;4.60;;
79487;SDS011;68949;53.176;18.088;2023-08-06T09:12:30;7.60;;;3.70;;
79487;SDS011;68949;53.176;18.088;2023-08-06T09:14:57;8.00;;;4.40;;
79487;SDS011;68949;53.176;18.088;2023-08-06T09:17:24;8.50;;;4.70;;
79487;SDS011;68949;53.176;18.088;2023-08-06T09:19:50;7.00;;;4.20;;
79487;SDS011;68949;53.176;18.088;2023-08-06T09:22:16;7.10;;;3.40;;
79487;SDS011;68949;53.176;18.088;2023-08-06T09:24:42;7.60;;;3.90;;
79487;SDS011;68949;53.176;18.088;2023-08-06T09:27:12;8.40;;;5.10;;
79487;SDS011;68949;53.176;18.088;2023-08-06T09:29:41;7.60;;;3.50;;
79487;SDS011;68949;53.176;18.088;2023-08-06T09:32:12;8.30;;;4.10;;
79487;SDS011;68949;53.176;18.088;2023-08-06T09:34:39;7.70;;;4.90;;
79487;SDS011;68949;53.176;18.088;2023-08-06T09:37:09;7.30;;;4.40;;
79487;SDS011;68949;53.176;18.088;2023-08-06T09:39:40;9.90;;;5.70;;
79487;SDS011;68949;53.176;18.088;2023-08-06T09:42:07;8.60;;;5.00;;
79487;SDS011;68949;53.176;18.088;2023-08-06T09:44:33;8.40;;;4.70;;
79487;SDS011;68949;53.176;18.088;2023-08-06T09:47:03;7.60;;;3.90;;
79487;SDS011;68949;53.176;18.088;2023-08-06T09:51:59;8.30;;;4.90;;
79487;SDS011;68949;53.176;18.088;2023-08-06T09:54:27;8.20;;;4.50;;
79487;SDS011;68949;53.176;18.088;2023-08-06T09:56:54;8.80;;;5.20;;
79487;SDS011;68949;53.176;18.088;2023-08-06T09:59:22;6.20;;;2.50;;
79487;SDS011;68949;53.176;18.088;2023-08-06T10:01:49;8.30;;;4.80;;
79487;SDS011;68949;53.176;18.088;2023-08-06T10:04:16;8.10;;;4.80;;
79487;SDS011;68949;53.176;18.088;2023-08-06T10:06:46;5.90;;;3.30;;
79487;SDS011;68949;53.176;18.088;2023-08-06T10:09:14;5.70;;;3.10;;
79487;SDS011;68949;53.176;18.088;2023-08-06T10:11:42;6.80;;;4.00;;
79487;SDS011;68949;53.176;18.088;2023-08-06T10:14:28;8.10;;;4.90;;
79487;SDS011;68949;53.176;18.088;2023-08-06T10:16:59;6.50;;;4.10;;
79487;SDS011;68949;53.176;18.088;2023-08-06T10:19:27;8.50;;;4.60;;
79487;SDS011;68949;53.176;18.088;2023-08-06T10:22:15;6.60;;;4.30;;
79487;SDS011;68949;53.176;18.088;2023-08-06T10:27:29;5.30;;;2.70;;
79487;SDS011;68949;53.176;18.088;2023-08-06T10:30:26;6.70;;;3.70;;
79487;SDS011;68949;53.176;18.088;2023-08-06T10:32:56;4.80;;;2.50;;
79487;SDS011;68949;53.176;18.088;2023-08-06T10:35:40;5.90;;;3.60;;
79487;SDS011;68949;53.176;18.088;2023-08-06T10:38:12;6.30;;;3.10;;
79487;SDS011;68949;53.176;18.088;2023-08-06T10:40:42;8.60;;;3.70;;
79487;SDS011;68949;53.176;18.088;2023-08-06T10:43:36;6.50;;;3.60;;
79487;SDS011;68949;53.176;18.088;2023-08-06T10:46:31;7.20;;;4.10;;
79487;SDS011;68949;53.176;18.088;2023-08-06T10:48:58;5.60;;;3.10;;
79487;SDS011;68949;53.176;18.088;2023-08-06T10:51:25;6.80;;;3.80;;
79487;SDS011;68949;53.176;18.088;2023-08-06T10:53:51;5.40;;;3.20;;
79487;SDS011;68949;53.176;18.088;2023-08-06T10:56:19;5.90;;;3.60;;
79487;SDS011;68949;53.176;18.088;2023-08-06T10:58:51;5.40;;;3.60;;
79487;SDS011;68949;53.176;18.088;2023-08-06T11:01:18;7.00;;;3.60;;
79487;SDS011;68949;53.176;18.088;2023-08-06T11:03:46;6.70;;;3.90;;
79487;SDS011;68949;53.176;18.088;2023-08-06T11:06:21;5.80;;;3.20;;
79487;SDS011;68949;53.176;18.088;2023-08-06T11:08:50;5.50;;;3.00;;
79487;SDS011;68949;53.176;18.088;2023-08-06T11:11:18;5.10;;;2.50;;
79487;SDS011;68949;53.176;18.088;2023-08-06T11:13:48;5.60;;;2.80;;
79487;SDS011;68949;53.176;18.088;2023-08-06T11:16:17;5.30;;;3.20;;
79487;SDS011;68949;53.176;18.088;2023-08-06T11:18:45;5.50;;;3.50;;
79487;SDS011;68949;53.176;18.088;2023-08-06T11:21:11;6.80;;;3.10;;
79487;SDS011;68949;53.176;18.088;2023-08-06T11:23:37;5.10;;;2.80;;
79487;SDS011;68949;53.176;18.088;2023-08-06T11:26:04;5.60;;;3.50;;
79487;SDS011;68949;53.176;18.088;2023-08-06T11:28:30;5.90;;;2.90;;
79487;SDS011;68949;53.176;18.088;2023-08-06T11:30:57;5.30;;;3.00;;
79487;SDS011;68949;53.176;18.088;2023-08-06T11:33:28;5.90;;;3.40;;
79487;SDS011;68949;53.176;18.088;2023-08-06T11:35:55;6.20;;;3.30;;
79487;SDS011;68949;53.176;18.088;2023-08-06T11:38:28;6.50;;;4.00;;
79487;SDS011;68949;53.176;18.088;2023-08-06T11:40:54;8.00;;;4.70;;
79487;SDS011;68949;53.176;18.088;2023-08-06T11:43:21;6.90;;;3.90;;
79487;SDS011;68949;53.176;18.088;2023-08-06T11:45:49;9.30;;;3.90;;
79487;SDS011;68949;53.176;18.088;2023-08-06T11:48:16;8.70;;;4.80;;
79487;SDS011;68949;53.176;18.088;2023-08-06T11:50:44;7.10;;;3.60;;
79487;SDS011;68949;53.176;18.088;2023-08-06T11:53:12;9.00;;;5.80;;
79487;SDS011;68949;53.176;18.088;2023-08-06T11:55:42;10.60;;;6.40;;
79487;SDS011;68949;53.176;18.088;2023-08-06T11:58:10;11.10;;;6.10;;
79487;SDS011;68949;53.176;18.088;2023-08-06T12:00:37;11.30;;;7.20;;
79487;SDS011;68949;53.176;18.088;2023-08-06T12:03:04;12.70;;;6.30;;
79487;SDS011;68949;53.176;18.088;2023-08-06T12:05:31;10.80;;;6.20;;
79487;SDS011;68949;53.176;18.088;2023-08-06T12:08:02;14.20;;;8.60;;
79487;SDS011;68949;53.176;18.088;2023-08-06T12:10:30;13.10;;;8.50;;
79487;SDS011;68949;53.176;18.088;2023-08-06T12:12:57;14.20;;;9.20;;
79487;SDS011;68949;53.176;18.088;2023-08-06T12:15:23;9.60;;;5.10;;
79487;SDS011;68949;53.176;18.088;2023-08-06T12:17:50;14.90;;;9.90;;
79487;SDS011;68949;53.176;18.088;2023-08-06T12:20:16;11.50;;;7.70;;
79487;SDS011;68949;53.176;18.088;2023-08-06T12:22:43;16.70;;;8.80;;
79487;SDS011;68949;53.176;18.088;2023-08-06T12:25:11;14.60;;;9.50;;
79487;SDS011;68949;53.176;18.088;2023-08-06T12:27:40;18.10;;;11.70;;
79487;SDS011;68949;53.176;18.088;2023-08-06T12:30:08;16.30;;;11.00;;
79487;SDS011;68949;53.176;18.088;2023-08-06T12:32:35;17.70;;;12.30;;
79487;SDS011;68949;53.176;18.088;2023-08-06T12:35:03;12.20;;;7.30;;
79487;SDS011;68949;53.176;18.088;2023-08-06T12:37:30;12.60;;;7.30;;
79487;SDS011;68949;53.176;18.088;2023-08-06T12:39:56;19.80;;;12.60;;
79487;SDS011;68949;53.176;18.088;2023-08-06T12:42:22;17.40;;;11.30;;
79487;SDS011;68949;53.176;18.088;2023-08-06T12:44:50;14.90;;;10.40;;
79487;SDS011;68949;53.176;18.088;2023-08-06T12:47:17;18.90;;;12.40;;
79487;SDS011;68949;53.176;18.088;2023-08-06T12:49:43;19.80;;;12.10;;
79487;SDS011;68949;53.176;18.088;2023-08-06T12:52:09;19.20;;;12.10;;
79487;SDS011;68949;53.176;18.088;2023-08-06T12:54:38;14.50;;;9.00;;
79487;SDS011;68949;53.176;18.088;2023-08-06T12:57:05;17.80;;;11.00;;
79487;SDS011;68949;53.176;18.088;2023-08-06T12:59:31;15.00;;;9.70;;
79487;SDS011;68949;53.176;18.088;2023-08-06T13:01:59;18.00;;;11.20;;
79487;SDS011;68949;53.176;18.088;2023-08-06T13:04:26;16.90;;;11.50;;
79487;SDS011;68949;53.176;18.088;2023-08-06T13:06:52;18.20;;;11.00;;
79487;SDS011;68949;53.176;18.088;2023-08-06T13:09:19;15.20;;;10.80;;
79487;SDS011;68949;53.176;18.088;2023-08-06T13:11:46;13.80;;;9.40;;
79487;SDS011;68949;53.176;18.088;2023-08-06T13:14:18;13.80;;;10.50;;
79487;SDS011;68949;53.176;18.088;2023-08-06T13:16:44;13.70;;;8.70;;
79487;SDS011;68949;53.176;18.088;2023-08-06T13:19:11;14.70;;;10.50;;
79487;SDS011;68949;53.176;18.088;2023-08-06T13:24:16;10.10;;;6.70;;
79487;SDS011;68949;53.176;18.088;2023-08-06T13:26:42;13.90;;;10.20;;
79487;SDS011;68949;53.176;18.088;2023-08-06T13:29:09;15.30;;;10.60;;
79487;SDS011;68949;53.176;18.088;2023-08-06T13:31:38;17.20;;;11.70;;
79487;SDS011;68949;53.176;18.088;2023-08-06T13:34:04;12.10;;;8.60;;
79487;SDS011;68949;53.176;18.088;2023-08-06T13:36:31;15.20;;;9.80;;
79487;SDS011;68949;53.176;18.088;2023-08-06T13:38:57;14.00;;;9.80;;
79487;SDS011;68949;53.176;18.088;2023-08-06T13:41:25;14.50;;;10.30;;
79487;SDS011;68949;53.176;18.088;2023-08-06T13:43:51;18.50;;;10.40;;
79487;SDS011;68949;53.176;18.088;2023-08-06T13:46:18;15.40;;;10.70;;
79487;SDS011;68949;53.176;18.088;2023-08-06T13:48:48;14.50;;;10.50;;
79487;SDS011;68949;53.176;18.088;2023-08-06T13:51:18;15.10;;;11.70;;
79487;SDS011;68949;53.176;18.088;2023-08-06T13:53:45;15.20;;;10.70;;
79487;SDS011;68949;53.176;18.088;2023-08-06T13:56:12;15.70;;;10.80;;
79487;SDS011;68949;53.176;18.088;2023-08-06T13:58:39;14.20;;;11.20;;
79487;SDS011;68949;53.176;18.088;2023-08-06T14:01:09;15.00;;;10.50;;
79487;SDS011;68949;53.176;18.088;2023-08-06T14:03:37;15.70;;;11.50;;
79487;SDS011;68949;53.176;18.088;2023-08-06T14:06:03;16.10;;;11.00;;
79487;SDS011;68949;53.176;18.088;2023-08-06T14:08:30;17.50;;;10.90;;
79487;SDS011;68949;53.176;18.088;2023-08-06T14:10:56;14.90;;;11.40;;
79487;SDS011;68949;53.176;18.088;2023-08-06T14:13:24;20.10;;;11.30;;
79487;SDS011;68949;53.176;18.088;2023-08-06T14:15:50;16.40;;;11.90;;
79487;SDS011;68949;53.176;18.088;2023-08-06T14:18:29;15.40;;;10.10;;
79487;SDS011;68949;53.176;18.088;2023-08-06T14:20:55;18.10;;;11.70;;
79487;SDS011;68949;53.176;18.088;2023-08-06T14:23:22;15.00;;;11.10;;
79487;SDS011;68949;53.176;18.088;2023-08-06T14:25:48;16.00;;;10.60;;
79487;SDS011;68949;53.176;18.088;2023-08-06T14:28:14;16.50;;;11.70;;
79487;SDS011;68949;53.176;18.088;2023-08-06T14:30:41;16.30;;;11.10;;
79487;SDS011;68949;53.176;18.088;2023-08-06T14:33:07;15.20;;;10.70;;
79487;SDS011;68949;53.176;18.088;2023-08-06T14:35:34;15.80;;;11.30;;
79487;SDS011;68949;53.176;18.088;2023-08-06T14:38:01;15.80;;;11.70;;
79487;SDS011;68949;53.176;18.088;2023-08-06T14:40:30;18.10;;;12.10;;
79487;SDS011;68949;53.176;18.088;2023-08-06T14:43:00;19.10;;;12.80;;
79487;SDS011;68949;53.176;18.088;2023-08-06T14:45:37;19.70;;;12.60;;
79487;SDS011;68949;53.176;18.088;2023-08-06T14:48:09;17.20;;;12.60;;
79487;SDS011;68949;53.176;18.088;2023-08-06T14:50:36;16.40;;;12.20;;